Time;durP1;ratioP1;P1;durP2;ratioP2;P2;SDS_P1;SDS_P2;PMS_P1;PMS_P2;Temp;Humidity;BMP_temperature;BMP_pressure;BME280_temperature;BME280_humidity;BME280_pressure;Samples;Min_cycle;Max_cycle;Signal;HPM_P1;HPM_P2
2022/01/05 00:02:08;;;;;;;11.90;7.50;;;6.30;99.90;;;;;;5054918;28;20228;-78
2022/01/05 00:04:57;;;;;;;14.73;8.80;;;6.30;99.90;;;;;;5056932;28;20886;-79
2022/01/05 00:07:46;;;;;;;15.07;9.13;;;6.30;99.90;;;;;;5054975;28;20224;-76
2022/01/05 00:10:34;;;;;;;17.13;9.30;;;6.30;99.90;;;;;;5057305;28;20314;-76
2022/01/05 00:13:24;;;;;;;16.93;10.00;;;6.30;99.90;;;;;;5040773;28;20696;-77
2022/01/05 00:16:13;;;;;;;19.40;9.97;;;6.30;99.90;;;;;;5042876;28;20220;-76
2022/01/05 00:19:02;;;;;;;21.47;11.20;;;6.30;99.90;;;;;;5041134;28;20691;-77
2022/01/05 00:21:50;;;;;;;24.83;11.67;;;6.30;99.90;;;;;;5042361;28;20212;-78
2022/01/05 00:24:41;;;;;;;20.73;10.50;;;6.20;99.90;;;;;;5053244;28;20230;-77
2022/01/05 00:27:30;;;;;;;23.90;12.23;;;6.20;99.90;;;;;;5050734;28;20216;-77
2022/01/05 00:30:20;;;;;;;24.97;13.47;;;6.20;99.90;;;;;;5051405;28;20227;-76
2022/01/05 00:33:08;;;;;;;23.33;13.23;;;6.30;99.90;;;;;;5040007;28;20227;-77
2022/01/05 00:36:01;;;;;;;20.27;11.87;;;6.30;99.90;;;;;;5058525;28;20228;-78
2022/01/05 00:38:49;;;;;;;23.10;12.90;;;6.40;99.90;;;;;;5065847;28;20234;-78
2022/01/05 00:41:38;;;;;;;22.63;12.83;;;6.30;99.90;;;;;;5039466;28;20374;-77
2022/01/05 00:44:27;;;;;;;23.43;12.90;;;6.30;99.90;;;;;;5036850;28;20431;-78
2022/01/05 00:47:17;;;;;;;21.37;13.13;;;6.30;99.90;;;;;;5035987;28;20216;-79
2022/01/05 00:50:06;;;;;;;23.90;13.90;;;6.30;99.90;;;;;;5052029;28;20240;-79
2022/01/05 00:53:00;;;;;;;24.47;13.53;;;6.30;99.90;;;;;;5034559;28;20797;-79
2022/01/05 00:55:49;;;;;;;22.87;12.93;;;6.40;99.90;;;;;;5046558;28;20247;-79
2022/01/05 00:58:37;;;;;;;20.67;13.17;;;6.40;99.90;;;;;;5043234;28;20219;-79
2022/01/05 01:01:26;;;;;;;23.73;13.30;;;6.40;99.90;;;;;;5044144;28;20338;-79
2022/01/05 01:04:16;;;;;;;21.47;12.83;;;6.50;99.90;;;;;;5044592;28;20316;-80
2022/01/05 01:07:05;;;;;;;18.43;11.50;;;6.50;99.90;;;;;;5059167;28;20607;-79
2022/01/05 01:09:53;;;;;;;22.87;12.70;;;6.50;99.90;;;;;;5063076;28;20224;-79
2022/01/05 01:12:42;;;;;;;18.60;12.63;;;6.50;99.90;;;;;;5046476;28;20212;-78
2022/01/05 01:15:31;;;;;;;22.63;12.63;;;6.60;99.90;;;;;;5047326;28;20704;-79
2022/01/05 01:18:20;;;;;;;19.93;11.80;;;6.60;99.90;;;;;;5042972;28;20220;-78
2022/01/05 01:21:10;;;;;;;18.83;11.87;;;6.50;99.90;;;;;;5056731;28;20247;-78
2022/01/05 01:23:59;;;;;;;20.27;10.80;;;6.50;99.90;;;;;;5056134;28;20876;-78
2022/01/05 01:26:47;;;;;;;18.47;10.30;;;6.50;99.90;;;;;;5061229;28;20310;-78
2022/01/05 01:29:36;;;;;;;19.57;10.57;;;6.50;99.90;;;;;;5040365;28;20225;-78
2022/01/05 01:32:26;;;;;;;19.83;11.00;;;6.50;99.90;;;;;;5043568;28;20220;-78
2022/01/05 01:35:14;;;;;;;20.73;10.53;;;6.50;99.90;;;;;;5058780;28;20225;-78
2022/01/05 01:38:05;;;;;;;18.23;10.10;;;6.50;99.90;;;;;;5061162;28;20225;-78
2022/01/05 01:40:53;;;;;;;18.57;10.77;;;6.50;99.90;;;;;;5060443;28;20231;-78
2022/01/05 01:43:42;;;;;;;19.67;10.80;;;6.50;99.90;;;;;;5058842;28;20232;-77
2022/01/05 01:46:31;;;;;;;22.07;11.47;;;6.60;99.90;;;;;;5045019;28;20239;-79
2022/01/05 01:49:20;;;;;;;22.13;11.60;;;6.60;99.90;;;;;;5055699;28;20238;-79
2022/01/05 01:52:09;;;;;;;21.40;10.83;;;6.70;99.90;;;;;;5043439;28;20231;-79
2022/01/05 01:54:59;;;;;;;19.13;11.30;;;6.70;99.90;;;;;;5013686;28;20709;-79
2022/01/05 01:57:49;;;;;;;21.30;11.80;;;6.80;99.90;;;;;;5062594;28;20232;-78
2022/01/05 02:00:38;;;;;;;22.40;12.50;;;6.70;99.90;;;;;;5056965;28;20220;-78
2022/01/05 02:03:28;;;;;;;19.97;12.10;;;6.60;99.90;;;;;;5044479;28;20306;-80
2022/01/05 02:06:17;;;;;;;23.87;13.10;;;6.70;99.90;;;;;;5053631;28;20235;-78
2022/01/05 02:09:06;;;;;;;22.97;13.40;;;6.70;99.90;;;;;;5039592;28;20247;-79
2022/01/05 02:11:56;;;;;;;25.43;14.57;;;6.70;99.90;;;;;;5043946;28;20244;-77
2022/01/05 02:14:45;;;;;;;22.40;13.90;;;6.80;99.90;;;;;;5052440;28;20371;-77
2022/01/05 02:17:45;;;;;;;26.90;15.33;;;6.80;99.90;;;;;;5056160;28;20216;-77
2022/01/05 02:20:34;;;;;;;25.23;14.07;;;6.80;99.90;;;;;;5054217;28;20445;-78
2022/01/05 02:23:24;;;;;;;23.23;14.50;;;6.90;99.90;;;;;;5053956;28;20227;-76
2022/01/05 02:26:13;;;;;;;27.27;15.13;;;6.90;99.90;;;;;;5052997;28;20235;-77
2022/01/05 02:29:01;;;;;;;27.60;15.53;;;6.90;99.90;;;;;;5056734;28;20239;-77
2022/01/05 02:31:50;;;;;;;26.33;15.53;;;6.90;99.90;;;;;;5051119;28;20229;-76
2022/01/05 02:34:38;;;;;;;29.07;16.03;;;6.90;99.90;;;;;;5054343;28;20216;-76
2022/01/05 02:37:27;;;;;;;27.53;15.63;;;6.90;99.90;;;;;;5059472;28;20220;-79
2022/01/05 02:40:19;;;;;;;29.03;16.50;;;6.90;99.90;;;;;;5044280;28;20223;-77
2022/01/05 02:43:08;;;;;;;32.57;17.27;;;6.90;99.90;;;;;;5060582;28;20224;-78
2022/01/05 02:45:56;;;;;;;34.40;17.50;;;6.90;99.90;;;;;;5035914;28;20243;-77
2022/01/05 02:48:46;;;;;;;31.03;17.50;;;6.90;99.90;;;;;;5036185;28;20881;-77
2022/01/05 02:51:35;;;;;;;35.47;18.20;;;6.90;99.90;;;;;;5054779;28;20235;-78
2022/01/05 02:54:24;;;;;;;34.93;18.70;;;6.90;99.90;;;;;;5046639;28;20708;-77
2022/01/05 02:57:17;;;;;;;34.57;18.90;;;6.90;99.90;;;;;;5051843;28;20229;-77
2022/01/05 03:00:08;;;;;;;36.37;19.97;;;7.00;99.90;;;;;;5054710;28;20240;-78
2022/01/05 03:02:56;;;;;;;36.47;19.10;;;7.00;99.90;;;;;;5056259;28;20224;-78
2022/01/05 03:05:45;;;;;;;34.10;17.97;;;7.00;99.90;;;;;;5044714;28;20732;-76
2022/01/05 03:08:34;;;;;;;35.60;20.00;;;7.00;99.90;;;;;;5041093;28;20236;-76
2022/01/05 03:11:23;;;;;;;35.17;18.47;;;7.00;99.90;;;;;;5044554;28;20299;-78
2022/01/05 03:14:13;;;;;;;29.80;17.50;;;7.00;99.90;;;;;;5055843;28;20224;-75
2022/01/05 03:17:01;;;;;;;31.20;17.50;;;7.10;99.90;;;;;;5044668;28;20842;-77
2022/01/05 03:19:50;;;;;;;28.87;17.93;;;7.10;99.90;;;;;;5046940;28;20230;-78
2022/01/05 03:22:39;;;;;;;32.37;18.20;;;7.00;99.90;;;;;;5040421;28;20287;-78
2022/01/05 03:25:28;;;;;;;33.43;19.03;;;7.10;99.90;;;;;;5051838;28;20225;-76
2022/01/05 03:28:17;;;;;;;34.63;19.67;;;7.00;99.90;;;;;;5053745;28;20229;-78
2022/01/05 03:31:07;;;;;;;34.80;20.50;;;7.00;99.90;;;;;;5055223;28;20228;-78
2022/01/05 03:33:56;;;;;;;32.87;20.43;;;7.10;99.90;;;;;;5051723;28;20583;-75
2022/01/05 03:36:44;;;;;;;33.70;21.73;;;7.10;99.90;;;;;;5052190;28;20208;-77
2022/01/05 03:39:33;;;;;;;31.93;20.23;;;7.10;99.90;;;;;;5046840;28;20224;-78
2022/01/05 03:42:22;;;;;;;34.53;21.50;;;7.10;99.90;;;;;;5054755;28;20223;-78
2022/01/05 03:45:11;;;;;;;34.97;22.13;;;7.10;99.90;;;;;;5047217;28;20231;-78
2022/01/05 03:48:01;;;;;;;35.00;22.10;;;7.10;99.90;;;;;;5051409;28;20307;-77
2022/01/05 03:50:50;;;;;;;36.27;22.70;;;7.10;99.90;;;;;;5053718;28;20228;-76
2022/01/05 03:53:38;;;;;;;35.33;22.13;;;7.10;99.90;;;;;;5054071;28;20228;-76
2022/01/05 03:56:27;;;;;;;34.37;22.40;;;7.10;99.90;;;;;;5039482;28;20227;-76
2022/01/05 03:59:16;;;;;;;34.90;21.80;;;7.10;99.90;;;;;;5036474;28;20235;-77
2022/01/05 04:02:05;;;;;;;39.27;22.20;;;7.10;99.90;;;;;;5051086;28;20221;-77
2022/01/05 04:04:55;;;;;;;35.70;21.77;;;7.10;99.90;;;;;;5049909;28;20786;-76
2022/01/05 04:07:43;;;;;;;36.33;22.13;;;7.20;99.90;;;;;;5053130;28;20741;-77
2022/01/05 04:10:32;;;;;;;34.47;22.20;;;7.10;99.90;;;;;;5036139;28;20282;-76
2022/01/05 04:13:21;;;;;;;35.30;22.33;;;7.20;99.90;;;;;;5049594;28;20918;-78
2022/01/05 04:16:09;;;;;;;35.00;21.83;;;7.20;99.90;;;;;;5036748;28;20221;-78
2022/01/05 04:18:58;;;;;;;38.17;22.83;;;7.20;99.90;;;;;;5052536;28;20906;-75
2022/01/05 04:21:51;;;;;;;33.43;22.27;;;7.20;99.90;;;;;;5038166;28;20562;-74
2022/01/05 04:24:40;;;;;;;33.13;21.73;;;7.20;99.90;;;;;;5051824;28;20842;-75
2022/01/05 04:27:29;;;;;;;35.87;22.30;;;7.20;99.90;;;;;;5051049;28;20217;-75
2022/01/05 04:30:18;;;;;;;39.03;23.57;;;7.10;99.90;;;;;;5038914;28;20299;-77
2022/01/05 04:33:10;;;;;;;34.23;22.27;;;7.10;99.90;;;;;;5042414;28;20224;-76
2022/01/05 04:36:19;;;;;;;39.10;23.67;;;7.00;99.90;;;;;;5051747;28;20731;-75
2022/01/05 04:39:09;;;;;;;36.53;23.53;;;7.00;99.90;;;;;;5036168;28;20217;-74
2022/01/05 04:41:58;;;;;;;37.70;23.20;;;7.00;99.90;;;;;;5058771;28;20216;-79
2022/01/05 04:44:47;;;;;;;34.00;22.03;;;7.00;99.90;;;;;;5033302;28;20220;-76
2022/01/05 04:47:36;;;;;;;33.13;22.43;;;7.00;99.90;;;;;;5047811;28;20327;-77
2022/01/05 04:50:25;;;;;;;34.93;23.67;;;7.00;99.90;;;;;;5053142;28;20228;-77
2022/01/05 04:53:18;;;;;;;33.43;23.83;;;7.10;99.90;;;;;;5054511;28;20220;-79
2022/01/05 04:56:08;;;;;;;36.00;23.83;;;7.10;99.90;;;;;;5047218;28;20220;-77
2022/01/05 04:58:56;;;;;;;37.90;23.43;;;7.00;99.90;;;;;;5057443;28;20216;-76
2022/01/05 05:01:46;;;;;;;38.63;24.27;;;7.00;99.90;;;;;;5041983;28;20216;-77
2022/01/05 05:04:34;;;;;;;34.67;23.07;;;7.00;99.90;;;;;;5054000;28;20228;-76
2022/01/05 05:07:24;;;;;;;34.30;23.53;;;7.00;99.90;;;;;;5059092;28;20228;-77
2022/01/05 05:10:12;;;;;;;36.80;23.70;;;7.00;99.90;;;;;;5041543;28;20220;-76
2022/01/05 05:13:08;;;;;;;39.53;24.27;;;7.10;99.90;;;;;;5043151;28;20506;-78
2022/01/05 05:15:57;;;;;;;32.93;21.97;;;7.10;99.90;;;;;;5063695;28;20246;-76
2022/01/05 05:18:51;;;;;;;37.73;23.63;;;7.10;99.90;;;;;;5054952;28;20240;-76
2022/01/05 05:21:39;;;;;;;37.17;24.67;;;7.10;99.90;;;;;;5055440;28;20221;-75
2022/01/05 05:24:28;;;;;;;34.97;23.60;;;7.10;99.90;;;;;;5055591;28;20812;-76
2022/01/05 05:27:16;;;;;;;35.93;24.30;;;7.10;99.90;;;;;;5053417;28;20232;-77
2022/01/05 05:30:08;;;;;;;34.77;23.77;;;7.10;99.90;;;;;;5054720;28;20242;-76
2022/01/05 05:32:57;;;;;;;36.67;24.30;;;7.10;99.90;;;;;;5055086;28;20224;-76
2022/01/05 05:35:46;;;;;;;36.20;23.93;;;7.20;99.90;;;;;;5055216;28;20280;-77
2022/01/05 05:38:35;;;;;;;36.63;23.90;;;7.10;99.90;;;;;;5054656;28;20212;-78
2022/01/05 05:41:23;;;;;;;34.70;23.53;;;7.20;99.90;;;;;;5044419;28;20229;-77
2022/01/05 05:44:12;;;;;;;35.13;23.07;;;7.30;99.90;;;;;;5051103;28;20736;-76
2022/01/05 05:47:03;;;;;;;33.03;22.63;;;7.20;99.90;;;;;;5051164;28;20236;-77
2022/01/05 05:49:51;;;;;;;34.57;21.77;;;7.20;99.90;;;;;;5051248;28;20233;-78
2022/01/05 05:52:40;;;;;;;32.17;22.57;;;7.20;99.90;;;;;;5052195;28;20575;-78
2022/01/05 05:55:29;;;;;;;34.13;22.33;;;7.20;99.90;;;;;;5039910;28;20218;-78
2022/01/05 05:58:17;;;;;;;33.27;22.37;;;7.20;99.90;;;;;;5033963;28;20232;-77
2022/01/05 06:01:06;;;;;;;32.37;22.53;;;7.30;99.90;;;;;;5025282;28;20325;-77
2022/01/05 06:03:56;;;;;;;31.43;22.23;;;7.20;99.90;;;;;;5039185;28;20260;-77
2022/01/05 06:06:45;;;;;;;34.50;22.07;;;7.20;99.90;;;;;;5037107;28;20240;-77
2022/01/05 06:09:33;;;;;;;31.77;22.17;;;7.20;99.90;;;;;;5038431;28;20228;-77
2022/01/05 06:12:22;;;;;;;37.10;23.33;;;7.20;99.90;;;;;;5039442;28;20232;-76
2022/01/05 06:15:11;;;;;;;29.03;20.77;;;7.30;99.90;;;;;;5033974;28;20710;-79
2022/01/05 06:17:59;;;;;;;35.10;21.17;;;7.30;99.90;;;;;;5018527;28;20235;-79
2022/01/05 06:20:50;;;;;;;30.17;20.53;;;7.30;99.90;;;;;;5023562;28;20259;-79
2022/01/05 06:23:38;;;;;;;33.40;21.37;;;7.30;99.90;;;;;;5034230;28;20236;-77
2022/01/05 06:26:27;;;;;;;29.90;21.57;;;7.30;99.90;;;;;;5023428;28;20220;-78
2022/01/05 06:29:16;;;;;;;31.87;21.33;;;7.30;99.90;;;;;;5019183;28;20822;-77
2022/01/05 06:32:05;;;;;;;24.83;18.80;;;7.30;99.90;;;;;;5032882;28;20231;-78
2022/01/05 06:34:54;;;;;;;30.97;20.47;;;7.30;99.90;;;;;;5018899;28;20231;-78
2022/01/05 06:37:47;;;;;;;26.03;20.00;;;7.30;99.90;;;;;;5019162;28;20241;-80
2022/01/05 06:40:42;;;;;;;27.23;19.77;;;7.30;99.90;;;;;;5034474;28;20233;-79
2022/01/05 06:43:31;;;;;;;27.10;19.03;;;7.20;99.90;;;;;;5038556;28;20709;-79
2022/01/05 06:46:23;;;;;;;27.73;20.37;;;7.20;99.90;;;;;;5046179;28;20224;-78
2022/01/05 06:49:11;;;;;;;26.57;17.87;;;7.30;99.90;;;;;;5019789;28;20228;-79
2022/01/05 06:52:00;;;;;;;27.30;18.33;;;7.20;99.90;;;;;;5024681;28;20221;-78
2022/01/05 06:54:50;;;;;;;25.40;18.93;;;7.20;99.90;;;;;;5041663;28;20259;-78
2022/01/05 06:57:41;;;;;;;26.97;18.30;;;7.20;99.90;;;;;;5054547;28;20233;-79
2022/01/05 07:00:31;;;;;;;26.20;19.17;;;7.30;99.90;;;;;;5052704;28;20732;-79
2022/01/05 07:03:20;;;;;;;27.93;18.77;;;7.30;99.90;;;;;;5039680;28;20220;-79
2022/01/05 07:06:08;;;;;;;23.67;18.80;;;7.30;99.90;;;;;;5050414;28;20413;-79
2022/01/05 07:08:57;;;;;;;25.77;17.73;;;7.30;99.90;;;;;;5040713;28;20239;-79
2022/01/05 07:11:47;;;;;;;27.40;18.87;;;7.30;99.90;;;;;;5052647;28;20803;-79
2022/01/05 07:14:35;;;;;;;27.30;17.83;;;7.30;99.90;;;;;;5045276;28;20220;-81
2022/01/05 07:17:25;;;;;;;24.70;17.53;;;7.30;99.90;;;;;;5041409;28;20574;-83
2022/01/05 07:20:13;;;;;;;25.43;17.47;;;7.30;99.90;;;;;;5055295;28;20229;-80
2022/01/05 07:23:02;;;;;;;26.47;19.23;;;7.40;99.90;;;;;;5046614;28;20229;-78
2022/01/05 07:25:51;;;;;;;21.97;16.73;;;7.40;99.90;;;;;;5058839;28;20213;-78
2022/01/05 07:28:44;;;;;;;26.63;18.90;;;7.40;99.90;;;;;;5060845;28;20213;-79
2022/01/05 07:31:33;;;;;;;22.97;17.43;;;7.40;99.90;;;;;;5047486;28;20220;-76
2022/01/05 07:34:22;;;;;;;21.87;17.33;;;7.30;99.90;;;;;;5040890;28;20941;-78
2022/01/05 07:37:10;;;;;;;27.07;17.37;;;7.40;99.90;;;;;;5055772;28;20244;-77
2022/01/05 07:40:00;;;;;;;29.57;18.63;;;7.40;99.90;;;;;;5054525;28;20250;-75
2022/01/05 07:42:48;;;;;;;27.77;18.27;;;7.40;99.90;;;;;;5055135;28;20225;-75
2022/01/05 07:45:39;;;;;;;28.57;20.17;;;7.40;99.90;;;;;;5058996;28;20577;-75
2022/01/05 07:48:27;;;;;;;27.13;19.27;;;7.50;99.90;;;;;;5057558;28;20581;-73
2022/01/05 07:51:16;;;;;;;25.47;18.30;;;7.50;99.90;;;;;;5057483;28;20222;-76
2022/01/05 07:54:05;;;;;;;26.13;18.37;;;7.50;99.90;;;;;;5049468;28;20221;-75
2022/01/05 07:56:53;;;;;;;22.37;16.90;;;7.60;99.90;;;;;;5053792;28;20299;-73
2022/01/05 07:59:42;;;;;;;24.40;17.07;;;7.60;99.90;;;;;;5042086;28;20229;-77
2022/01/05 08:02:32;;;;;;;25.00;18.17;;;7.60;99.90;;;;;;5055664;28;20881;-78
2022/01/05 08:05:22;;;;;;;22.87;17.47;;;7.50;99.90;;;;;;5051611;28;20212;-78
2022/01/05 08:08:11;;;;;;;24.57;16.97;;;7.50;99.90;;;;;;5049853;28;20587;-77
2022/01/05 08:10:59;;;;;;;26.33;17.87;;;7.50;99.90;;;;;;5048589;28;20231;-76
2022/01/05 08:13:48;;;;;;;25.67;17.93;;;7.50;99.90;;;;;;5051092;28;20328;-78
2022/01/05 08:16:37;;;;;;;25.17;17.50;;;7.50;99.90;;;;;;5031628;28;20227;-80
2022/01/05 08:19:27;;;;;;;22.77;16.53;;;7.60;99.90;;;;;;5049209;28;21385;-77
2022/01/05 08:22:16;;;;;;;24.37;17.13;;;7.60;99.90;;;;;;5042685;28;20221;-76
2022/01/05 08:25:05;;;;;;;25.07;17.63;;;7.70;99.90;;;;;;5039362;28;20863;-79
2022/01/05 08:27:54;;;;;;;25.23;17.50;;;7.70;99.90;;;;;;5050851;28;20242;-78
2022/01/05 08:30:44;;;;;;;23.53;17.37;;;7.60;99.90;;;;;;5037755;28;20217;-79
2022/01/05 08:33:34;;;;;;;24.30;18.27;;;7.50;99.90;;;;;;5051321;28;20235;-77
2022/01/05 08:36:24;;;;;;;25.57;18.13;;;7.60;99.90;;;;;;5053393;28;20212;-80
2022/01/05 08:39:13;;;;;;;25.87;18.23;;;7.60;99.90;;;;;;5036393;28;20646;-78
2022/01/05 08:42:02;;;;;;;23.63;17.83;;;7.60;99.90;;;;;;5050350;28;20239;-73
2022/01/05 08:44:51;;;;;;;24.73;18.07;;;7.60;99.90;;;;;;5043709;28;20312;-74
2022/01/05 08:47:39;;;;;;;26.00;18.83;;;7.60;99.90;;;;;;5048435;28;20228;-73
2022/01/05 08:50:31;;;;;;;25.37;18.43;;;7.60;99.90;;;;;;5038394;28;20661;-73
2022/01/05 08:53:22;;;;;;;23.23;17.03;;;7.60;99.90;;;;;;5052958;28;20217;-73
2022/01/05 08:56:11;;;;;;;24.73;17.57;;;7.50;99.90;;;;;;5055265;28;20247;-72
2022/01/05 08:59:00;;;;;;;23.63;17.50;;;7.60;99.90;;;;;;5045457;28;20227;-74
2022/01/05 09:01:48;;;;;;;23.53;17.63;;;7.50;99.90;;;;;;5050995;28;20217;-72
2022/01/05 09:04:37;;;;;;;23.33;17.03;;;7.40;99.90;;;;;;5036142;28;20569;-73
2022/01/05 09:07:27;;;;;;;25.27;17.23;;;7.50;99.90;;;;;;5053930;28;20388;-72
2022/01/05 09:10:17;;;;;;;23.53;17.10;;;7.60;99.90;;;;;;5054576;28;20231;-71
2022/01/05 09:13:09;;;;;;;24.90;17.47;;;7.60;99.90;;;;;;5036199;28;20783;-71
2022/01/05 09:15:57;;;;;;;22.57;16.87;;;7.70;99.90;;;;;;5048710;28;20228;-70
2022/01/05 09:18:46;;;;;;;25.37;17.57;;;7.80;99.90;;;;;;5052630;28;20244;-69
2022/01/05 09:21:36;;;;;;;24.33;17.20;;;7.70;99.90;;;;;;5046900;28;20244;-69
2022/01/05 09:24:25;;;;;;;28.37;18.43;;;7.70;99.90;;;;;;5035739;28;20253;-69
2022/01/05 09:27:16;;;;;;;26.03;18.47;;;7.70;99.90;;;;;;5043401;28;20232;-69
2022/01/05 09:30:07;;;;;;;27.47;18.47;;;7.80;99.90;;;;;;5042706;28;20281;-68
2022/01/05 09:32:57;;;;;;;26.70;18.60;;;7.80;99.90;;;;;;5042336;28;21099;-67
2022/01/05 09:35:49;;;;;;;26.50;18.17;;;7.80;99.90;;;;;;5054001;28;20226;-67
2022/01/05 09:41:56;;;;;;;27.43;18.77;;;7.80;99.90;;;;;;5037624;28;20219;-69
2022/01/05 09:42:00;;;;;;;28.10;18.77;;;7.70;99.90;;;;;;5039142;28;20215;-72
2022/01/05 09:44:52;;;;;;;27.60;18.27;;;7.70;99.90;;;;;;5049988;28;20609;-70
2022/01/05 09:47:52;;;;;;;24.67;18.13;;;7.70;99.90;;;;;;5049685;28;20350;-69
2022/01/05 09:50:48;;;;;;;26.13;18.80;;;7.80;99.90;;;;;;5047586;28;20221;-70
2022/01/05 09:53:37;;;;;;;25.53;18.17;;;7.80;99.90;;;;;;5040573;28;20633;-68
2022/01/05 09:56:46;;;;;;;24.53;17.87;;;7.80;99.90;;;;;;5041320;28;20668;-70
2022/01/05 09:59:35;;;;;;;26.27;18.43;;;7.80;99.90;;;;;;5049899;28;20230;-71
2022/01/05 10:02:25;;;;;;;28.60;19.07;;;7.70;99.90;;;;;;5044795;28;20755;-70
2022/01/05 10:05:20;;;;;;;25.10;17.47;;;7.80;99.90;;;;;;5034539;28;20676;-70
2022/01/05 10:08:09;;;;;;;23.77;17.47;;;7.90;99.90;;;;;;5053569;28;20303;-74
2022/01/05 10:10:57;;;;;;;25.00;17.07;;;7.90;99.90;;;;;;5049549;28;20371;-73
2022/01/05 10:13:46;;;;;;;25.27;18.63;;;8.00;99.90;;;;;;5037131;28;20233;-74
2022/01/05 10:16:34;;;;;;;29.93;19.03;;;7.90;99.90;;;;;;5037108;28;20228;-74
2022/01/05 10:19:28;;;;;;;23.97;17.57;;;7.90;99.90;;;;;;5052219;28;20709;-73
2022/01/05 10:22:33;;;;;;;24.57;18.10;;;7.80;99.90;;;;;;5034262;28;20212;-73
2022/01/05 10:25:22;;;;;;;25.87;17.73;;;7.80;99.90;;;;;;5052133;28;20220;-71
2022/01/05 10:28:11;;;;;;;22.40;16.63;;;7.90;99.90;;;;;;5056407;28;20223;-70
2022/01/05 10:31:00;;;;;;;25.30;17.57;;;7.80;99.90;;;;;;5040645;28;20221;-71
2022/01/05 10:33:49;;;;;;;22.63;16.80;;;7.90;99.90;;;;;;5051056;28;20231;-71
2022/01/05 10:36:47;;;;;;;24.43;17.87;;;7.80;99.90;;;;;;5054911;28;20228;-69
2022/01/05 10:39:39;;;;;;;22.13;16.77;;;7.80;99.90;;;;;;5030209;28;20242;-69
2022/01/05 10:42:32;;;;;;;21.57;16.73;;;7.90;99.90;;;;;;5053163;28;20247;-68
2022/01/05 10:45:22;;;;;;;23.57;17.57;;;7.90;99.90;;;;;;5051770;28;20291;-69
2022/01/05 10:48:13;;;;;;;27.57;18.10;;;7.90;99.90;;;;;;5046424;28;20263;-70
2022/01/05 10:51:05;;;;;;;23.90;18.07;;;8.00;99.90;;;;;;5052544;28;20546;-71
2022/01/05 10:54:10;;;;;;;25.40;18.27;;;8.00;99.90;;;;;;5039187;28;20217;-70
2022/01/05 10:57:12;;;;;;;26.73;18.10;;;8.00;99.90;;;;;;5052811;28;20228;-69
2022/01/05 11:00:02;;;;;;;25.63;17.90;;;8.00;99.90;;;;;;5050066;28;20824;-69
2022/01/05 11:02:50;;;;;;;27.77;17.90;;;8.00;99.90;;;;;;5053863;28;20818;-69
2022/01/05 11:05:41;;;;;;;26.20;17.40;;;8.00;99.90;;;;;;5041525;28;20286;-68
2022/01/05 11:08:31;;;;;;;24.27;17.63;;;8.00;99.90;;;;;;5055376;28;20999;-69
2022/01/05 11:11:37;;;;;;;24.53;18.73;;;8.10;99.90;;;;;;5033966;28;20272;-69
2022/01/05 11:14:31;;;;;;;23.27;17.80;;;8.10;99.90;;;;;;5036655;28;20221;-70
2022/01/05 11:17:19;;;;;;;25.23;18.17;;;8.10;99.90;;;;;;5047225;28;20220;-71
2022/01/05 11:20:11;;;;;;;24.40;17.37;;;8.10;99.90;;;;;;5052000;28;20213;-69
2022/01/05 11:22:59;;;;;;;27.60;18.53;;;8.10;99.90;;;;;;5051887;28;20233;-71
2022/01/05 11:25:49;;;;;;;26.23;18.17;;;8.00;99.90;;;;;;5048394;28;20220;-70
2022/01/05 11:28:39;;;;;;;26.17;17.77;;;8.10;99.90;;;;;;5054309;28;20222;-71
2022/01/05 11:31:29;;;;;;;25.97;17.73;;;8.10;99.90;;;;;;5049873;28;20221;-69
2022/01/05 11:34:18;;;;;;;25.30;17.70;;;8.00;99.90;;;;;;5052323;28;20676;-68
2022/01/05 11:37:09;;;;;;;23.77;17.03;;;8.00;99.90;;;;;;5031369;28;20217;-68
2022/01/05 11:39:58;;;;;;;25.00;17.00;;;7.90;99.90;;;;;;5054016;28;20603;-66
2022/01/05 11:42:49;;;;;;;26.47;17.87;;;7.90;99.90;;;;;;5054400;28;20221;-69
2022/01/05 11:45:45;;;;;;;23.93;17.33;;;7.90;99.90;;;;;;5052150;28;20237;-71
2022/01/05 11:48:40;;;;;;;26.60;18.33;;;7.80;99.90;;;;;;5050507;28;20665;-69
2022/01/05 11:51:33;;;;;;;28.60;19.03;;;7.70;99.90;;;;;;5053227;28;20224;-69
2022/01/05 11:54:24;;;;;;;27.27;18.97;;;7.60;99.90;;;;;;5039542;28;20220;-68
2022/01/05 11:57:14;;;;;;;23.43;16.60;;;7.50;99.90;;;;;;5040756;28;20232;-69
2022/01/05 12:00:17;;;;;;;25.43;17.30;;;7.40;99.90;;;;;;5037689;28;20225;-70
2022/01/05 12:03:07;;;;;;;31.53;18.87;;;7.40;99.90;;;;;;5053693;28;20260;-68
2022/01/05 12:06:06;;;;;;;26.90;17.77;;;7.40;99.90;;;;;;5050336;28;20304;-70
2022/01/05 12:08:57;;;;;;;33.87;21.77;;;7.40;99.90;;;;;;5050144;28;20712;-70
2022/01/05 12:11:45;;;;;;;31.70;20.60;;;7.40;99.90;;;;;;5051578;28;20220;-70
2022/01/05 12:14:50;;;;;;;33.20;21.57;;;7.30;99.90;;;;;;5050990;28;20236;-69
2022/01/05 12:17:40;;;;;;;37.37;22.93;;;7.30;99.90;;;;;;5039296;28;20244;-68
2022/01/05 12:20:35;;;;;;;32.00;20.87;;;7.20;99.90;;;;;;5039850;28;20216;-70
2022/01/05 12:23:25;;;;;;;30.43;20.03;;;7.30;99.90;;;;;;5050003;28;20235;-71
2022/01/05 12:26:18;;;;;;;34.30;21.20;;;7.20;99.90;;;;;;5048565;28;21101;-70
2022/01/05 12:29:08;;;;;;;36.17;22.10;;;7.20;99.90;;;;;;5037436;28;20693;-69
2022/01/05 12:31:59;;;;;;;37.40;21.80;;;7.20;99.90;;;;;;5054729;28;20355;-70
2022/01/05 12:34:54;;;;;;;32.60;21.40;;;7.20;99.90;;;;;;5048899;28;20236;-70
2022/01/05 12:37:49;;;;;;;34.27;20.90;;;7.30;99.90;;;;;;5052694;28;20217;-70
2022/01/05 12:40:38;;;;;;;27.83;19.07;;;7.20;99.90;;;;;;5036589;28;20287;-69
2022/01/05 12:43:40;;;;;;;27.60;17.43;;;7.20;99.90;;;;;;5041053;28;20232;-70
2022/01/05 12:46:41;;;;;;;22.40;15.23;;;7.20;99.90;;;;;;5052288;28;20305;-69
2022/01/05 12:49:35;;;;;;;24.00;16.53;;;7.10;99.90;;;;;;5036558;28;20232;-70
2022/01/05 12:52:38;;;;;;;24.50;15.80;;;7.10;99.90;;;;;;5036954;28;20269;-69
2022/01/05 12:55:29;;;;;;;25.60;16.57;;;7.10;99.90;;;;;;5052797;28;20710;-70
2022/01/05 12:58:17;;;;;;;20.47;14.67;;;7.10;99.90;;;;;;5041803;28;20311;-71
2022/01/05 13:01:07;;;;;;;23.37;15.47;;;7.10;99.90;;;;;;5055191;28;20548;-69
2022/01/05 13:03:57;;;;;;;21.87;15.57;;;7.20;99.90;;;;;;5041303;28;20890;-68
2022/01/05 13:06:47;;;;;;;26.70;16.03;;;7.10;99.90;;;;;;5042721;28;20345;-67
2022/01/05 13:09:38;;;;;;;21.87;15.00;;;7.10;99.90;;;;;;5054380;28;20246;-70
2022/01/05 13:12:31;;;;;;;21.07;15.30;;;7.20;99.90;;;;;;5053490;28;20347;-70
2022/01/05 13:15:20;;;;;;;27.20;16.67;;;7.20;99.90;;;;;;5057532;28;20216;-69
2022/01/05 13:18:08;;;;;;;26.73;16.13;;;7.20;99.90;;;;;;5041900;28;20248;-70
2022/01/05 13:20:57;;;;;;;23.83;14.93;;;7.20;99.90;;;;;;5057709;28;20220;-69
2022/01/05 13:23:55;;;;;;;22.30;15.07;;;7.10;99.90;;;;;;5058083;28;20236;-69
2022/01/05 13:27:05;;;;;;;22.13;14.37;;;7.20;99.90;;;;;;5044207;28;20223;-70
2022/01/05 13:29:56;;;;;;;20.47;13.63;;;7.10;99.90;;;;;;5040909;28;20225;-68
2022/01/05 13:32:49;;;;;;;18.60;12.53;;;7.20;99.90;;;;;;5041700;28;21010;-70
2022/01/05 13:35:38;;;;;;;17.13;11.27;;;7.10;99.90;;;;;;5038743;28;20236;-70
2022/01/05 13:38:27;;;;;;;16.43;12.30;;;7.20;99.90;;;;;;5043170;28;20384;-68
2022/01/05 13:41:16;;;;;;;17.73;12.53;;;7.20;99.90;;;;;;5038293;28;20217;-70
2022/01/05 13:44:05;;;;;;;17.67;12.90;;;7.20;99.90;;;;;;5057791;28;20236;-69
2022/01/05 13:46:55;;;;;;;17.50;12.20;;;7.20;99.90;;;;;;5054805;28;20224;-68
2022/01/05 13:50:20;;;;;;;18.90;12.77;;;7.20;99.90;;;;;;5059498;28;20238;-69
2022/01/05 13:53:12;;;;;;;20.73;14.23;;;7.20;99.90;;;;;;5053457;28;20228;-69
2022/01/05 13:56:05;;;;;;;21.00;13.83;;;7.20;99.90;;;;;;5057177;28;20221;-70
2022/01/05 13:58:58;;;;;;;23.33;15.10;;;7.10;99.90;;;;;;5059559;28;20224;-69
2022/01/05 14:02:00;;;;;;;20.87;14.83;;;7.10;99.90;;;;;;5053762;28;20212;-70
2022/01/05 14:04:55;;;;;;;19.10;13.17;;;7.10;99.90;;;;;;5053874;28;20220;-68
2022/01/05 14:07:44;;;;;;;18.17;12.43;;;7.10;99.90;;;;;;5056154;28;20315;-68
2022/01/05 14:10:35;;;;;;;15.20;9.90;;;7.10;99.90;;;;;;5057579;28;20231;-69
2022/01/05 14:13:25;;;;;;;14.50;9.87;;;7.00;99.90;;;;;;5059712;28;20243;-67
2022/01/05 14:16:27;;;;;;;13.73;9.40;;;6.90;99.90;;;;;;5061489;28;20224;-69
2022/01/05 14:19:28;;;;;;;10.60;8.73;;;7.00;99.90;;;;;;5055432;28;20223;-69
2022/01/05 14:22:19;;;;;;;14.10;8.07;;;6.90;99.90;;;;;;5056435;28;20965;-68
2022/01/05 14:25:08;;;;;;;11.13;7.53;;;6.80;99.90;;;;;;5056071;28;20224;-69
2022/01/05 14:27:57;;;;;;;11.53;8.17;;;6.80;99.90;;;;;;5055147;28;20226;-69
2022/01/05 14:30:51;;;;;;;9.63;6.70;;;6.70;99.90;;;;;;5041367;28;20220;-70
2022/01/05 14:33:41;;;;;;;7.83;5.77;;;6.60;99.90;;;;;;5051487;28;20250;-69
2022/01/05 14:36:36;;;;;;;7.33;5.83;;;6.60;99.90;;;;;;5043235;28;20696;-69
2022/01/05 14:39:35;;;;;;;6.60;5.20;;;6.50;99.90;;;;;;5048225;28;20217;-70